< < Back
Terminal Aerodrome Forecast


Current Version              Previous Versions:   1  2  3  4  5  6  7  8  9  

Terminal Aerodrome Forecast

602
FTUS44 KMRX 011725
TAFCHA
TAF
KCHA 011725Z 0118/0218 21006KT P6SM BKN035
     FM012000 21008KT P6SM VCTS BKN040CB
      TEMPO 0120/0124 4SM -TSRA SCT015 BKN035CB
     FM020100 VRB03KT P6SM SCT050 OVC200
     FM020900 VRB03KT P6SM SCT015 BKN200
     FM021500 19010KT P6SM SCT020 BKN100=

Latest METAR

330
SAUS80 KWBC 012300 RRC
MTRCHA
METAR KCHA 012253Z 21006KT 10SM SCT040 BKN090 BKN120 BKN150 26/18 A2999
RMK AO2 SLP150 T02560178


USA.gov is the U.S. government's official web portal to all federal, state and local government web resources and services.